createdAt,value
2018-11-10T00:01:57.680Z,10.60
2018-11-10T00:04:26.483Z,10.60
2018-11-10T00:06:55.301Z,10.50
2018-11-10T00:09:24.091Z,10.50
2018-11-10T00:11:52.922Z,10.60
2018-11-10T00:14:21.771Z,10.60
2018-11-10T00:16:50.578Z,10.70
2018-11-10T00:19:19.359Z,10.80
2018-11-10T00:21:48.195Z,10.80
2018-11-10T00:24:16.975Z,10.80
2018-11-10T00:26:45.800Z,10.80
2018-11-10T00:29:14.723Z,10.80
2018-11-10T00:31:43.539Z,10.80
2018-11-10T00:34:12.313Z,10.70
2018-11-10T00:36:41.140Z,10.60
2018-11-10T00:39:10.397Z,10.50
2018-11-10T00:41:39.177Z,10.40
2018-11-10T00:44:08.180Z,10.30
2018-11-10T00:46:37.068Z,10.30
2018-11-10T00:49:06.280Z,10.30
2018-11-10T00:51:35.079Z,10.40
2018-11-10T00:54:04.003Z,10.40
2018-11-10T00:56:32.890Z,10.40
2018-11-10T00:59:01.787Z,10.50
2018-11-10T01:01:30.590Z,10.60
2018-11-10T01:03:59.417Z,10.70
2018-11-10T01:06:28.179Z,10.80
2018-11-10T01:08:56.977Z,10.80
2018-11-10T01:11:25.792Z,10.80
2018-11-10T01:13:54.590Z,10.80
2018-11-10T01:16:23.370Z,10.70
2018-11-10T01:18:52.197Z,10.70
2018-11-10T01:21:20.974Z,10.60
2018-11-10T01:23:49.780Z,10.60
2018-11-10T01:26:18.592Z,10.60
2018-11-10T01:28:47.379Z,10.70
2018-11-10T01:31:16.174Z,10.70
2018-11-10T01:33:44.994Z,10.80
2018-11-10T01:36:13.794Z,10.80
2018-11-10T01:38:42.560Z,10.80
2018-11-10T01:41:11.391Z,10.80
2018-11-10T01:43:40.185Z,10.80
2018-11-10T01:46:09.044Z,10.90
2018-11-10T01:48:38.273Z,10.90
2018-11-10T01:51:07.080Z,10.90
2018-11-10T01:53:35.856Z,11.00
2018-11-10T01:56:04.685Z,11.00
2018-11-10T01:58:33.496Z,11.00
2018-11-10T02:01:02.279Z,10.90
2018-11-10T02:03:31.105Z,11.00
2018-11-10T02:05:59.865Z,11.00
2018-11-10T02:08:28.706Z,10.90
2018-11-10T02:10:57.536Z,10.90
2018-11-10T02:13:26.373Z,10.90
2018-11-10T02:15:55.139Z,10.90
2018-11-10T02:18:23.937Z,10.80
2018-11-10T02:20:52.779Z,10.80
2018-11-10T02:23:21.731Z,10.70
2018-11-10T02:25:51.671Z,10.70
2018-11-10T02:28:20.526Z,10.70
2018-11-10T02:30:49.343Z,10.60
2018-11-10T02:33:18.112Z,10.60
2018-11-10T02:35:46.914Z,10.50
2018-11-10T02:38:15.680Z,10.50
2018-11-10T02:40:44.487Z,10.50
2018-11-10T02:43:13.273Z,10.50
2018-11-10T02:45:42.052Z,10.60
2018-11-10T02:48:10.888Z,10.70
2018-11-10T02:50:39.693Z,10.60
2018-11-10T02:53:08.535Z,10.70
2018-11-10T02:55:37.362Z,10.70
2018-11-10T02:58:06.651Z,10.70
2018-11-10T03:00:35.503Z,10.70
2018-11-10T03:03:04.403Z,10.70
2018-11-10T03:05:33.228Z,10.70
2018-11-10T03:08:02.096Z,10.60
2018-11-10T03:10:30.931Z,10.70
2018-11-10T03:12:59.786Z,10.70
2018-11-10T03:15:28.739Z,10.70
2018-11-10T03:17:57.533Z,10.80
2018-11-10T03:20:26.348Z,10.70
2018-11-10T03:22:55.196Z,10.70
2018-11-10T03:25:24.040Z,10.70
2018-11-10T03:27:52.888Z,10.70
2018-11-10T03:30:21.916Z,10.70
2018-11-10T03:32:50.745Z,10.70
2018-11-10T03:35:20.634Z,10.70
2018-11-10T03:37:49.475Z,10.80
2018-11-10T03:40:18.297Z,10.80
2018-11-10T03:42:47.107Z,10.80
2018-11-10T03:45:15.941Z,10.80
2018-11-10T03:47:44.759Z,10.80
2018-11-10T03:50:13.600Z,10.80
2018-11-10T03:52:42.828Z,10.80
2018-11-10T03:55:11.666Z,10.80
2018-11-10T03:57:40.507Z,10.80
2018-11-10T04:00:12.205Z,10.80
2018-11-10T04:02:42.172Z,10.80
2018-11-10T04:05:11.839Z,10.80
2018-11-10T04:07:41.647Z,10.80
2018-11-10T04:10:11.078Z,10.80
2018-11-10T04:12:39.995Z,10.80
2018-11-10T04:15:08.946Z,10.80
2018-11-10T04:17:37.813Z,10.70
2018-11-10T04:20:08.262Z,10.70
2018-11-10T04:22:37.977Z,10.70
2018-11-10T04:25:09.253Z,10.70
2018-11-10T04:27:38.083Z,10.70
2018-11-10T04:30:08.270Z,10.80
2018-11-10T04:32:37.522Z,10.80
2018-11-10T04:35:07.208Z,10.80
2018-11-10T04:37:36.231Z,10.80
2018-11-10T04:40:05.614Z,10.90
2018-11-10T04:42:34.402Z,10.90
2018-11-10T04:45:03.199Z,11.00
2018-11-10T04:47:32.073Z,11.00
2018-11-10T04:50:00.917Z,11.00
2018-11-10T04:52:29.720Z,11.00
2018-11-10T04:54:58.554Z,11.10
2018-11-10T04:57:27.459Z,11.20
2018-11-10T04:59:56.230Z,11.20
2018-11-10T05:02:25.065Z,11.20
2018-11-10T05:04:53.923Z,11.30
2018-11-10T05:07:22.882Z,11.30
2018-11-10T05:09:51.658Z,11.30
2018-11-10T05:12:20.523Z,11.30
2018-11-10T05:14:49.378Z,11.30
2018-11-10T05:17:18.250Z,11.20
2018-11-10T05:19:47.086Z,11.20
2018-11-10T05:22:15.921Z,11.30
2018-11-10T05:24:44.774Z,11.30
2018-11-10T05:27:13.632Z,11.30
2018-11-10T05:29:42.448Z,11.30
2018-11-10T05:32:11.577Z,11.30
2018-11-10T05:34:40.437Z,11.30
2018-11-10T05:37:09.306Z,11.30
2018-11-10T05:39:38.195Z,11.40
2018-11-10T05:42:07.074Z,11.40
2018-11-10T05:44:35.902Z,11.40
2018-11-10T05:47:04.849Z,11.50
2018-11-10T05:49:33.769Z,11.50
2018-11-10T05:52:02.684Z,11.60
2018-11-10T05:54:31.534Z,11.60
2018-11-10T05:57:00.334Z,11.50
2018-11-10T05:59:29.226Z,11.50
2018-11-10T06:01:58.067Z,11.50
2018-11-10T06:04:26.897Z,11.60
2018-11-10T06:06:55.756Z,11.60
2018-11-10T06:09:24.721Z,11.60
2018-11-10T06:11:53.445Z,11.50
2018-11-10T06:14:22.366Z,11.50
2018-11-10T06:16:51.250Z,11.60
2018-11-10T06:19:20.069Z,11.60
2018-11-10T06:21:48.869Z,11.60
2018-11-10T06:24:17.741Z,11.60
2018-11-10T06:26:46.570Z,11.60
2018-11-10T06:29:15.460Z,11.70
2018-11-10T06:31:44.248Z,11.60
2018-11-10T06:34:13.120Z,11.60
2018-11-10T06:36:41.938Z,11.60
2018-11-10T06:39:11.784Z,11.50
2018-11-10T06:41:40.718Z,11.50
2018-11-10T06:44:09.971Z,11.50
2018-11-10T06:46:38.983Z,11.60
2018-11-10T06:49:08.236Z,11.60
2018-11-10T06:51:37.067Z,11.60
2018-11-10T06:54:06.109Z,11.60
2018-11-10T06:56:34.918Z,11.50
2018-11-10T06:59:03.794Z,11.50
2018-11-10T07:01:32.595Z,11.50
2018-11-10T07:04:01.384Z,11.40
2018-11-10T07:06:30.229Z,11.40
2018-11-10T07:08:59.038Z,11.40
2018-11-10T07:11:27.891Z,11.40
2018-11-10T07:13:56.914Z,11.40
2018-11-10T07:16:25.740Z,11.40
2018-11-10T07:18:54.581Z,11.40
2018-11-10T07:21:23.430Z,11.40
2018-11-10T07:23:52.240Z,11.40
2018-11-10T07:26:21.094Z,11.40
2018-11-10T07:28:49.896Z,11.40
2018-11-10T07:31:18.730Z,11.50
2018-11-10T07:33:47.531Z,11.50
2018-11-10T07:36:16.368Z,11.60
2018-11-10T07:38:45.179Z,11.70
2018-11-10T07:41:14.115Z,11.80
2018-11-10T07:43:42.902Z,11.90
2018-11-10T07:46:11.795Z,11.90
2018-11-10T07:48:40.750Z,11.90
2018-11-10T07:51:09.671Z,11.90
2018-11-10T07:53:38.566Z,11.90
2018-11-10T07:56:07.833Z,11.90
2018-11-10T07:58:36.645Z,11.90
2018-11-10T08:01:05.574Z,11.90
2018-11-10T08:03:34.503Z,11.90
2018-11-10T08:06:03.514Z,11.90
2018-11-10T08:08:32.315Z,11.80
2018-11-10T08:11:08.407Z,11.80
2018-11-10T08:13:41.179Z,11.90
2018-11-10T08:16:10.061Z,11.90
2018-11-10T08:18:38.975Z,11.90
2018-11-10T08:21:08.281Z,11.90
2018-11-10T08:23:37.108Z,12.00
2018-11-10T08:26:06.110Z,12.00
2018-11-10T08:28:34.922Z,12.00
2018-11-10T08:31:04.039Z,11.90
2018-11-10T08:33:33.070Z,11.90
2018-11-10T08:36:01.919Z,11.90
2018-11-10T08:38:30.774Z,11.90
2018-11-10T08:40:59.591Z,11.90
2018-11-10T08:43:28.489Z,11.90
2018-11-10T08:45:57.569Z,11.90
2018-11-10T08:48:26.466Z,11.90
2018-11-10T08:50:55.260Z,12.00
2018-11-10T08:53:24.079Z,12.00
2018-11-10T08:55:53.015Z,12.10
2018-11-10T08:58:22.008Z,12.10
2018-11-10T09:00:50.863Z,12.10
2018-11-10T09:03:19.749Z,12.10
2018-11-10T09:05:48.684Z,12.10
2018-11-10T09:08:18.509Z,12.10
2018-11-10T09:10:47.301Z,12.20
2018-11-10T09:13:16.198Z,12.20
2018-11-10T09:15:45.119Z,12.20
2018-11-10T09:18:14.010Z,12.30
2018-11-10T09:20:42.877Z,12.30
2018-11-10T09:23:11.710Z,12.30
2018-11-10T09:25:40.576Z,12.30
2018-11-10T09:28:09.474Z,12.30
2018-11-10T09:30:39.270Z,12.30
2018-11-10T09:33:08.237Z,12.30
2018-11-10T09:35:37.471Z,12.40
2018-11-10T09:38:07.651Z,12.40
2018-11-10T09:40:38.117Z,12.50
2018-11-10T09:43:07.014Z,12.50
2018-11-10T09:45:35.833Z,12.60
2018-11-10T09:48:04.692Z,12.60
2018-11-10T09:50:33.568Z,12.70
2018-11-10T09:53:02.444Z,12.70
2018-11-10T09:55:31.413Z,12.80
2018-11-10T09:58:00.205Z,12.90
2018-11-10T10:00:29.063Z,13.00
2018-11-10T10:02:57.925Z,13.00
2018-11-10T10:05:26.739Z,13.00
2018-11-10T10:07:55.648Z,13.00
2018-11-10T10:10:24.509Z,13.00
2018-11-10T10:12:53.611Z,13.00
2018-11-10T10:15:22.538Z,13.00
2018-11-10T10:17:51.406Z,13.00
2018-11-10T10:20:20.782Z,13.00
2018-11-10T10:22:50.335Z,13.00
2018-11-10T10:25:20.480Z,13.10
2018-11-10T10:27:50.547Z,13.10
2018-11-10T10:30:21.207Z,13.10
2018-11-10T10:32:50.457Z,13.10
2018-11-10T10:35:19.427Z,13.10
2018-11-10T10:37:49.100Z,13.20
2018-11-10T10:40:18.278Z,13.20
2018-11-10T10:42:47.908Z,13.20
2018-11-10T10:45:20.136Z,13.20
2018-11-10T10:47:49.046Z,13.20
2018-11-10T10:50:19.131Z,13.20
2018-11-10T10:52:48.931Z,13.20
2018-11-10T10:55:18.566Z,13.30
2018-11-10T10:57:48.416Z,13.20
2018-11-10T11:00:22.592Z,13.20
2018-11-10T11:02:56.946Z,13.20
2018-11-10T11:05:30.910Z,13.20
2018-11-10T11:07:59.772Z,13.10
2018-11-10T11:10:28.606Z,13.10
2018-11-10T11:12:57.474Z,13.00
2018-11-10T11:15:26.535Z,13.00
2018-11-10T11:18:02.932Z,12.90
2018-11-10T11:20:31.777Z,12.90
2018-11-10T11:23:00.997Z,12.90
2018-11-10T11:25:29.898Z,12.90
2018-11-10T11:27:58.942Z,12.90
2018-11-10T11:30:27.838Z,12.90
2018-11-10T11:32:57.186Z,12.80
2018-11-10T11:35:27.137Z,12.80
2018-11-10T11:37:55.967Z,12.70
2018-11-10T11:40:24.780Z,12.80
2018-11-10T11:42:53.699Z,12.70
2018-11-10T11:45:23.487Z,12.70
2018-11-10T11:47:52.385Z,12.80
2018-11-10T11:50:21.206Z,12.80
2018-11-10T11:52:50.055Z,12.80
2018-11-10T11:55:18.868Z,12.70
2018-11-10T11:57:47.757Z,12.70
2018-11-10T12:00:18.170Z,12.60
2018-11-10T12:02:47.467Z,12.60
2018-11-10T12:05:17.610Z,12.60
2018-11-10T12:07:47.107Z,12.60
2018-11-10T12:10:16.747Z,12.50
2018-11-10T12:12:45.676Z,12.60
2018-11-10T12:15:15.902Z,12.50
2018-11-10T12:17:44.739Z,12.50
2018-11-10T12:20:14.814Z,12.50
2018-11-10T12:22:43.809Z,12.50
2018-11-10T12:25:13.646Z,12.50
2018-11-10T12:27:43.246Z,12.40
2018-11-10T12:30:12.559Z,12.50
2018-11-10T12:32:41.756Z,12.40
2018-11-10T12:35:12.056Z,12.40
2018-11-10T12:37:40.977Z,12.40
2018-11-10T12:40:11.462Z,12.40
2018-11-10T12:42:40.700Z,12.40
2018-11-10T12:45:10.963Z,12.40
2018-11-10T12:47:40.483Z,12.40
2018-11-10T12:50:11.176Z,12.40
2018-11-10T12:52:40.664Z,12.30
2018-11-10T12:55:10.822Z,12.40
2018-11-10T12:57:39.991Z,12.30
2018-11-10T13:00:09.876Z,12.30
2018-11-10T13:02:38.717Z,12.30
2018-11-10T13:05:08.422Z,12.30
2018-11-10T13:07:37.321Z,12.40
2018-11-10T13:10:06.925Z,12.40
2018-11-10T13:12:35.838Z,12.40
2018-11-10T13:15:22.746Z,12.40
2018-11-10T13:17:51.594Z,12.40
2018-11-10T13:20:20.410Z,12.50
2018-11-10T13:22:49.255Z,12.50
2018-11-10T13:25:18.134Z,12.60
2018-11-10T13:27:46.986Z,12.60
2018-11-10T13:30:16.237Z,12.60
2018-11-10T13:32:45.104Z,12.60
2018-11-10T13:35:14.035Z,12.70
2018-11-10T13:37:43.067Z,12.70
2018-11-10T13:40:11.951Z,12.70
2018-11-10T13:42:40.911Z,12.70
2018-11-10T13:45:11.247Z,12.80
2018-11-10T13:47:40.217Z,12.80
2018-11-10T13:50:10.408Z,12.80
2018-11-10T13:52:40.559Z,12.80
2018-11-10T13:55:20.948Z,12.80
2018-11-10T13:57:49.919Z,12.80
2018-11-10T14:00:19.479Z,12.80
2018-11-10T14:02:48.266Z,12.80
2018-11-10T14:05:17.130Z,12.80
2018-11-10T14:07:45.955Z,12.80
2018-11-10T14:10:16.240Z,12.90
2018-11-10T14:12:46.158Z,12.90
2018-11-10T14:15:15.015Z,12.90
2018-11-10T14:17:45.043Z,12.80
2018-11-10T14:20:15.869Z,12.90
2018-11-10T14:22:45.497Z,12.80
2018-11-10T14:25:15.354Z,12.80
2018-11-10T14:27:44.956Z,12.80
2018-11-10T14:30:15.213Z,12.70
2018-11-10T14:32:44.543Z,12.70
2018-11-10T14:35:13.802Z,12.70
2018-11-10T14:37:42.708Z,12.70
2018-11-10T14:40:13.278Z,12.60
2018-11-10T14:42:42.687Z,12.60
2018-11-10T14:45:13.375Z,12.50
2018-11-10T14:47:42.837Z,12.50
2018-11-10T14:50:13.731Z,12.50
2018-11-10T14:52:42.922Z,12.60
2018-11-10T14:55:12.957Z,12.60
2018-11-10T14:57:43.129Z,12.70
2018-11-10T15:00:15.386Z,12.70
2018-11-10T15:02:44.231Z,12.60
2018-11-10T15:05:13.711Z,12.60
2018-11-10T15:07:43.466Z,12.60
2018-11-10T15:10:14.498Z,12.60
2018-11-10T15:12:44.006Z,12.60
2018-11-10T15:15:13.892Z,12.50
2018-11-10T15:17:42.939Z,12.50
2018-11-10T15:20:13.229Z,12.50
2018-11-10T15:22:42.092Z,12.50
2018-11-10T15:25:12.670Z,12.40
2018-11-10T15:27:41.842Z,12.40
2018-11-10T15:30:13.356Z,12.50
2018-11-10T15:32:43.113Z,12.50
2018-11-10T15:35:15.127Z,12.60
2018-11-10T15:37:45.233Z,12.60
2018-11-10T15:40:14.987Z,12.70
2018-11-10T15:42:43.891Z,12.70
2018-11-10T15:45:13.786Z,12.70
2018-11-10T15:47:43.015Z,12.70
2018-11-10T15:50:13.129Z,12.70
2018-11-10T15:52:42.168Z,12.80
2018-11-10T15:55:11.817Z,12.70
2018-11-10T15:57:41.341Z,12.80
2018-11-10T16:00:13.128Z,12.80
2018-11-10T16:02:42.434Z,12.90
2018-11-10T16:05:12.194Z,12.90
2018-11-10T16:07:41.223Z,12.90
2018-11-10T16:10:10.331Z,12.80
2018-11-10T16:12:39.197Z,12.80
2018-11-10T16:15:11.236Z,12.90
2018-11-10T16:17:40.558Z,12.90
2018-11-10T16:20:11.985Z,12.90
2018-11-10T16:22:40.765Z,13.00
2018-11-10T16:25:10.475Z,13.00
2018-11-10T16:27:40.964Z,13.00
2018-11-10T16:30:11.686Z,13.00
2018-11-10T16:32:40.837Z,13.10
2018-11-10T16:35:09.814Z,13.10
2018-11-10T16:37:38.690Z,13.00
2018-11-10T16:40:13.321Z,13.00
2018-11-10T16:42:43.232Z,13.00
2018-11-10T16:45:12.845Z,13.00
2018-11-10T16:47:41.733Z,13.00
2018-11-10T16:50:11.096Z,13.00
2018-11-10T16:52:41.088Z,13.10
2018-11-10T16:55:10.380Z,13.10
2018-11-10T16:57:39.693Z,13.20
2018-11-10T17:00:13.979Z,13.30
2018-11-10T17:02:43.074Z,13.20
2018-11-10T17:05:12.150Z,13.20
2018-11-10T17:07:41.491Z,13.20
2018-11-10T17:10:13.922Z,13.10
2018-11-10T17:12:43.309Z,13.10
2018-11-10T17:15:12.534Z,13.10
2018-11-10T17:17:42.149Z,13.10
2018-11-10T17:20:15.689Z,13.20
2018-11-10T17:22:44.980Z,13.10
2018-11-10T17:25:14.709Z,13.10
2018-11-10T17:27:45.193Z,13.20
2018-11-10T17:30:15.705Z,13.20
2018-11-10T17:32:44.764Z,13.20
2018-11-10T17:35:14.146Z,13.20
2018-11-10T17:37:43.283Z,13.20
2018-11-10T17:40:13.044Z,13.20
2018-11-10T17:42:41.905Z,13.30
2018-11-10T17:45:12.634Z,13.30
2018-11-10T17:47:42.311Z,13.30
2018-11-10T17:50:12.494Z,13.30
2018-11-10T17:52:41.620Z,13.30
2018-11-10T17:55:11.918Z,13.30
2018-11-10T17:57:41.391Z,13.30
2018-11-10T18:00:10.284Z,13.20
2018-11-10T18:02:39.159Z,13.20
2018-11-10T18:05:09.670Z,13.20
2018-11-10T18:07:38.526Z,13.20
2018-11-10T18:10:09.335Z,13.20
2018-11-10T18:12:38.339Z,13.20
2018-11-10T18:15:08.723Z,13.20
2018-11-10T18:17:37.682Z,13.20
2018-11-10T18:20:07.286Z,13.30
2018-11-10T18:22:36.169Z,13.20
2018-11-10T18:25:05.541Z,13.20
2018-11-10T18:27:34.492Z,13.20
2018-11-10T18:30:03.347Z,13.30
2018-11-10T18:32:32.231Z,13.30
2018-11-10T18:35:01.033Z,13.20
2018-11-10T18:37:30.021Z,13.30
2018-11-10T18:39:59.045Z,13.30
2018-11-10T18:42:27.929Z,13.30
2018-11-10T18:44:56.891Z,13.30
2018-11-10T18:47:25.699Z,13.30
2018-11-10T18:49:54.565Z,13.30
2018-11-10T18:52:23.736Z,13.30
2018-11-10T18:54:52.626Z,13.30
2018-11-10T18:57:21.824Z,13.30
2018-11-10T18:59:50.493Z,13.30
2018-11-10T19:02:19.361Z,13.30
2018-11-10T19:04:48.204Z,13.30
2018-11-10T19:07:16.997Z,13.30
2018-11-10T19:09:45.870Z,13.30
2018-11-10T19:12:14.990Z,13.40
2018-11-10T19:14:43.845Z,13.40
2018-11-10T19:17:12.732Z,13.40
2018-11-10T19:19:41.584Z,13.30
2018-11-10T19:22:10.540Z,13.30
2018-11-10T19:24:39.348Z,13.30
2018-11-10T19:27:08.221Z,13.20
2018-11-10T19:29:37.030Z,13.20
2018-11-10T19:32:06.127Z,13.20
2018-11-10T19:34:35.587Z,13.10
2018-11-10T19:37:04.598Z,13.10
2018-11-10T19:39:33.441Z,13.10
2018-11-10T19:42:02.296Z,13.10
2018-11-10T19:44:31.183Z,13.10
2018-11-10T19:47:00.111Z,13.00
2018-11-10T19:49:29.040Z,13.00
2018-11-10T19:51:58.087Z,13.00
2018-11-10T19:54:26.792Z,13.00
2018-11-10T19:56:55.592Z,13.00
2018-11-10T19:59:24.450Z,13.00
2018-11-10T20:01:53.322Z,13.00
2018-11-10T20:04:22.129Z,13.00
2018-11-10T20:06:51.236Z,12.90
2018-11-10T20:09:19.997Z,12.90
2018-11-10T20:11:50.071Z,12.80
2018-11-10T20:14:18.912Z,12.80
2018-11-10T20:16:47.814Z,12.80
2018-11-10T20:19:16.823Z,12.80
2018-11-10T20:21:45.668Z,12.80
2018-11-10T20:24:14.706Z,12.70
2018-11-10T20:26:43.599Z,12.80
2018-11-10T20:29:12.415Z,12.80
2018-11-10T20:31:41.236Z,12.80
2018-11-10T20:34:10.085Z,12.80
2018-11-10T20:36:39.811Z,12.90
2018-11-10T20:39:09.702Z,12.90
2018-11-10T20:41:38.723Z,12.80
2018-11-10T20:44:08.032Z,12.90
2018-11-10T20:46:36.902Z,12.90
2018-11-10T20:49:05.854Z,12.90
2018-11-10T20:51:34.746Z,12.80
2018-11-10T20:54:03.635Z,12.80
2018-11-10T20:56:32.496Z,12.80
2018-11-10T20:59:01.368Z,12.80
2018-11-10T21:01:30.260Z,12.80
2018-11-10T21:03:59.159Z,12.90
2018-11-10T21:06:28.113Z,12.90
2018-11-10T21:08:57.383Z,13.00
2018-11-10T21:11:27.035Z,13.00
2018-11-10T21:13:55.969Z,13.10
2018-11-10T21:16:24.837Z,13.10
2018-11-10T21:18:53.835Z,13.10
2018-11-10T21:21:22.660Z,13.10
2018-11-10T21:23:51.522Z,13.00
2018-11-10T21:26:20.407Z,13.00
2018-11-10T21:28:49.297Z,13.00
2018-11-10T21:31:18.096Z,12.90
2018-11-10T21:33:47.075Z,12.90
2018-11-10T21:36:15.935Z,12.80
2018-11-10T21:38:44.851Z,12.80
2018-11-10T21:41:13.796Z,12.80
2018-11-10T21:43:42.791Z,12.80
2018-11-10T21:46:12.240Z,12.80
2018-11-10T21:48:41.094Z,12.80
2018-11-10T21:51:09.985Z,12.80
2018-11-10T21:53:38.838Z,12.80
2018-11-10T21:56:07.698Z,12.80
2018-11-10T21:58:36.512Z,12.80
2018-11-10T22:01:05.384Z,12.80
2018-11-10T22:03:34.349Z,12.90
2018-11-10T22:06:03.176Z,12.90
2018-11-10T22:08:32.071Z,13.00
2018-11-10T22:11:00.988Z,13.00
2018-11-10T22:13:29.884Z,13.00
2018-11-10T22:15:58.749Z,13.10
2018-11-10T22:18:27.669Z,13.00
2018-11-10T22:20:56.555Z,12.90
2018-11-10T22:23:25.435Z,12.90
2018-11-10T22:28:47.459Z,12.80
2018-11-10T22:31:16.336Z,12.80
2018-11-10T22:33:45.290Z,12.70
2018-11-10T22:36:14.432Z,12.70
2018-11-10T22:38:43.325Z,12.80
2018-11-10T22:41:13.448Z,12.80
2018-11-10T22:43:44.834Z,12.70
2018-11-10T22:46:16.209Z,12.60
2018-11-10T22:48:47.687Z,12.60
2018-11-10T22:51:17.285Z,12.60
2018-11-10T22:53:46.737Z,12.60
2018-11-10T22:56:15.925Z,12.60
2018-11-10T22:58:45.069Z,12.60
2018-11-10T23:01:14.021Z,12.60
2018-11-10T23:03:43.058Z,12.50
2018-11-10T23:06:12.302Z,12.50
2018-11-10T23:08:41.864Z,12.50
2018-11-10T23:11:13.069Z,12.50
2018-11-10T23:13:42.888Z,12.40
2018-11-10T23:16:11.846Z,12.40
2018-11-10T23:18:41.510Z,12.30
2018-11-10T23:21:10.433Z,12.30
2018-11-10T23:23:39.357Z,12.30
2018-11-10T23:26:08.265Z,12.30
2018-11-10T23:28:37.026Z,12.30
2018-11-10T23:31:06.054Z,12.30
2018-11-10T23:33:34.952Z,12.30
2018-11-10T23:36:03.842Z,12.30
2018-11-10T23:38:32.710Z,12.40
2018-11-10T23:41:01.524Z,12.40
2018-11-10T23:43:30.306Z,12.40
2018-11-10T23:46:11.875Z,12.40
2018-11-10T23:48:40.924Z,12.40
2018-11-10T23:51:10.005Z,12.40
2018-11-10T23:53:38.785Z,12.40
2018-11-10T23:56:07.625Z,12.40
2018-11-10T23:58:36.447Z,12.40
